Time;durP1;ratioP1;P1;durP2;ratioP2;P2;SDS_P1;SDS_P2;PMS_P1;PMS_P2;Temp;Humidity;BMP_temperature;BMP_pressure;BME280_temperature;BME280_humidity;BME280_pressure;Samples;Min_cycle;Max_cycle;Signal;HPM_P1;HPM_P2
2023/04/14 00:01:47;;;;;;;5.10;3.83;;;;;;;-143.84;68.69;45178.56;4969935;28;20449;-71
2023/04/14 00:04:15;;;;;;;5.63;4.00;;;;;;;-143.84;68.72;45150.00;4970084;28;20446;-71
2023/04/14 00:06:42;;;;;;;4.97;3.30;;;;;;;-143.84;68.65;45170.94;4970229;28;20519;-71
2023/04/14 00:09:09;;;;;;;8.07;4.07;;;;;;;-143.84;68.55;45127.13;4970098;28;20496;-70
2023/04/14 00:11:36;;;;;;;10.30;3.80;;;;;;;-143.84;69.40;45127.13;4970668;28;20962;-71
2023/04/14 00:14:05;;;;;;;4.00;3.60;;;;;;;-143.84;70.03;45142.38;4970593;28;20446;-71
2023/04/14 00:16:33;;;;;;;3.70;3.40;;;;;;;-143.84;69.87;45146.19;4970512;28;20445;-71
2023/04/14 00:19:01;;;;;;;12.32;3.38;;;;;;;-143.84;70.14;45142.38;4970540;28;20815;-70
2023/04/14 00:21:28;;;;;;;4.73;4.23;;;;;;;-143.84;69.76;45167.13;4969960;28;20202;-71
2023/04/14 00:23:55;;;;;;;8.93;3.47;;;;;;;-143.84;69.97;45159.50;4969776;28;20441;-71
2023/04/14 00:26:22;;;;;;;5.57;4.10;;;;;;;-143.84;70.14;45170.94;4970026;28;20840;-71
2023/04/14 00:28:50;;;;;;;5.03;3.70;;;;;;;-143.84;70.47;45174.75;4970050;28;20517;-70
2023/04/14 00:31:18;;;;;;;6.27;3.97;;;;;;;-143.84;70.10;45144.28;4970328;28;20472;-70
2023/04/14 00:33:45;;;;;;;5.97;4.40;;;;;;;-143.84;70.22;45189.97;4970188;28;20466;-71
2023/04/14 00:36:13;;;;;;;4.53;3.40;;;;;;;-143.84;70.73;45129.03;4969829;28;20442;-70
2023/04/14 00:38:43;;;;;;;4.43;3.03;;;;;;;-143.84;71.57;45140.47;4970348;28;20528;-71
2023/04/14 00:41:10;;;;;;;10.93;3.67;;;;;;;-143.84;71.86;45140.47;4970374;28;20922;-70
2023/04/14 00:43:37;;;;;;;5.73;3.57;;;;;;;-143.84;71.71;45138.56;4969328;28;20442;-71
2023/04/14 00:46:05;;;;;;;11.50;3.73;;;;;;;-143.84;72.07;45138.56;4969602;28;20442;-71
2023/04/14 00:48:34;;;;;;;5.35;4.22;;;;;;;-143.84;71.96;45161.41;4970131;28;20453;-71
2023/04/14 00:51:02;;;;;;;3.93;3.60;;;;;;;-143.84;71.84;45155.69;4970080;28;20290;-71
2023/04/14 00:53:29;;;;;;;7.80;4.60;;;;;;;-143.84;71.59;45150.00;4969984;28;21077;-71
2023/04/14 00:55:56;;;;;;;8.07;4.53;;;;;;;-143.84;71.85;45155.69;4970557;28;20948;-71
2023/04/14 00:58:25;;;;;;;8.53;3.63;;;;;;;-143.84;71.80;45174.75;4970200;28;20508;-71
2023/04/14 01:00:54;;;;;;;3.93;3.63;;;;;;;-143.84;71.67;45100.47;4970457;28;20446;-71
2023/04/14 01:03:23;;;;;;;8.80;4.03;;;;;;;-143.84;71.62;45170.94;4970245;28;20446;-71
2023/04/14 01:05:51;;;;;;;4.00;3.63;;;;;;;-143.84;71.75;45155.69;4970061;28;20492;-71
2023/04/14 01:08:20;;;;;;;8.07;3.70;;;;;;;-143.84;71.93;45172.84;4970025;28;20487;-71
2023/04/14 01:11:04;;;;;;;9.87;4.60;;;;;;;-143.84;71.96;45155.69;4973875;28;20943;-71
2023/04/14 01:13:39;;;;;;;14.40;4.77;;;;;;;-143.84;71.59;45146.19;4973849;28;20442;-71
2023/04/14 01:16:14;;;;;;;16.13;5.17;;;;;;;-143.84;70.54;45169.03;4973765;28;20445;-71
2023/04/14 01:18:52;;;;;;;6.85;5.00;;;;;;;-143.84;69.86;45153.81;4973911;28;20440;-70
2023/04/14 01:21:26;;;;;;;6.47;4.10;;;;;;;-143.84;69.15;45174.75;4974033;28;20275;-70
2023/04/14 01:24:23;;;;;;;11.27;3.97;;;;;;;-143.84;68.83;45155.69;4973696;28;20449;-70
2023/04/14 01:27:03;;;;;;;6.87;3.40;;;;;;;-143.84;70.03;45169.03;4973634;28;21061;-71
2023/04/14 01:30:10;;;;;;;8.60;3.97;;;;;;;-143.84;72.02;45178.56;4973462;28;21024;-71
2023/04/14 01:32:44;;;;;;;5.23;2.90;;;;;;;-143.84;72.82;45138.56;4944214;28;20456;-71
2023/04/14 01:35:19;;;;;;;9.02;4.18;;;;;;;-143.84;73.01;45134.75;4973905;28;20453;-74
2023/04/14 01:37:50;;;;;;;15.83;4.20;;;;;;;-143.84;72.33;45167.13;4974044;28;20291;-74
2023/04/14 01:40:19;;;;;;;8.20;5.53;;;;;;;-143.84;71.74;45153.81;4973318;28;20448;-74
2023/04/14 01:42:53;;;;;;;8.63;4.97;;;;;;;-143.84;71.16;45159.50;4973389;28;20983;-74
2023/04/14 01:45:24;;;;;;;4.57;4.17;;;;;;;-143.84;70.54;45136.66;4973711;28;20434;-74
2023/04/14 01:47:55;;;;;;;6.97;4.75;;;;;;;-143.84;70.20;45174.75;4973314;28;21093;-75
2023/04/14 01:50:23;;;;;;;14.93;5.03;;;;;;;-143.84;70.14;45169.03;4973489;28;20204;-74
2023/04/14 01:52:53;;;;;;;15.03;4.57;;;;;;;-143.84;71.48;45148.09;4973432;28;20439;-74
2023/04/14 01:55:21;;;;;;;8.87;4.87;;;;;;;-143.84;71.50;45140.47;4973065;28;20513;-74
2023/04/14 01:57:51;;;;;;;6.60;3.90;;;;;;;-143.84;71.95;45144.28;4972701;28;20447;-74
2023/04/14 02:00:20;;;;;;;5.83;4.20;;;;;;;-143.84;72.05;45155.69;4972319;28;20444;-74
2023/04/14 02:02:50;;;;;;;8.35;4.18;;;;;;;-143.84;72.28;45144.28;4972535;28;20463;-74
2023/04/14 02:05:21;;;;;;;8.43;4.83;;;;;;;-143.84;72.05;45155.69;4972172;28;20207;-73
2023/04/14 02:07:51;;;;;;;11.20;3.50;;;;;;;-143.84;72.29;45144.28;4972003;28;20563;-73
2023/04/14 02:10:20;;;;;;;3.97;3.57;;;;;;;-143.84;71.91;45140.47;4972077;28;20542;-73
2023/04/14 02:12:51;;;;;;;6.95;3.53;;;;;;;-143.84;71.90;45159.50;4972078;28;20441;-73
2023/04/14 02:15:20;;;;;;;8.10;3.73;;;;;;;-143.84;71.64;45167.13;4972487;28;20199;-73
2023/04/14 02:17:49;;;;;;;4.40;4.00;;;;;;;-143.84;71.61;45138.56;4972714;28;20454;-73
2023/04/14 02:20:17;;;;;;;4.73;4.17;;;;;;;-143.84;71.61;45151.91;4971998;28;20446;-73
2023/04/14 02:22:46;;;;;;;5.40;3.75;;;;;;;-143.84;72.06;45163.31;4972954;28;20442;-73
2023/04/14 02:25:13;;;;;;;10.23;3.97;;;;;;;-143.84;72.13;45159.50;4972775;28;20229;-73
2023/04/14 02:27:48;;;;;;;8.17;4.20;;;;;;;-143.84;72.53;45167.13;4972775;28;20477;-73
2023/04/14 02:30:20;;;;;;;5.30;3.93;;;;;;;-143.84;72.60;45155.69;4972488;28;20489;-73
2023/04/14 02:32:53;;;;;;;3.92;3.67;;;;;;;-143.84;73.15;45151.91;4972633;28;20790;-73
2023/04/14 02:35:26;;;;;;;4.33;3.97;;;;;;;-143.84;73.36;45169.03;4972213;28;20253;-73
2023/04/14 02:38:00;;;;;;;6.20;3.93;;;;;;;-143.84;73.70;45140.47;4972536;28;20472;-73
2023/04/14 02:40:31;;;;;;;6.37;4.47;;;;;;;-143.84;74.33;45127.13;4953029;28;21015;-73
2023/04/14 02:43:03;;;;;;;8.00;4.10;;;;;;;-143.84;74.31;45142.38;4953061;28;20516;-73
2023/04/14 02:45:32;;;;;;;5.40;5.00;;;;;;;-143.84;74.36;45132.84;4953112;28;20439;-73
2023/04/14 02:48:04;;;;;;;4.50;4.10;;;;;;;-143.84;73.85;45148.09;4953308;28;20517;-71
2023/04/14 02:50:33;;;;;;;6.00;3.80;;;;;;;-143.84;73.82;45132.84;4952797;28;20960;-70
2023/04/14 02:53:04;;;;;;;4.20;3.80;;;;;;;-143.84;74.03;45136.66;4952668;28;20443;-70
2023/04/14 02:55:33;;;;;;;6.43;4.43;;;;;;;-143.84;73.74;45127.13;4952846;28;20470;-71
2023/04/14 02:58:00;;;;;;;6.70;5.97;;;;;;;-143.84;73.15;45161.41;4952646;28;20446;-71
2023/04/14 03:00:29;;;;;;;9.33;8.17;;;;;;;-143.84;72.70;45153.81;4951701;28;21026;-71
2023/04/14 03:02:58;;;;;;;10.80;9.80;;;;;;;-143.84;72.41;45163.31;4951550;28;20961;-71
2023/04/14 03:05:25;;;;;;;7.50;5.90;;;;;;;-143.84;72.84;45163.31;4952115;28;20454;-70
2023/04/14 03:07:54;;;;;;;8.70;4.23;;;;;;;-143.84;72.86;45138.56;4951635;28;20482;-70
2023/04/14 03:10:23;;;;;;;5.57;3.70;;;;;;;-143.84;73.33;45161.41;4951978;28;20456;-70
2023/04/14 03:12:52;;;;;;;7.40;4.40;;;;;;;-143.84;71.86;45163.31;4952049;28;20207;-70
2023/04/14 03:15:20;;;;;;;4.37;3.53;;;;;;;-143.84;70.67;45150.00;4952194;28;21254;-70
2023/04/14 03:17:52;;;;;;;9.73;7.80;;;;;;;-143.84;69.64;45174.75;4952303;28;20501;-70
2023/04/14 03:20:22;;;;;;;5.43;4.93;;;;;;;-143.84;69.02;45176.66;4952227;28;20446;-70
2023/04/14 03:22:56;;;;;;;6.40;5.80;;;;;;;-143.84;68.93;45157.59;4952238;28;20517;-70
2023/04/14 03:25:27;;;;;;;5.33;4.13;;;;;;;-143.84;68.52;45169.03;4951977;28;20450;-70
2023/04/14 03:27:58;;;;;;;13.10;4.70;;;;;;;-143.84;68.26;45159.50;4952288;28;20493;-70
2023/04/14 03:30:29;;;;;;;6.60;5.67;;;;;;;-143.84;67.75;45184.25;4951859;28;20501;-70
2023/04/14 03:33:04;;;;;;;8.40;6.43;;;;;;;-143.84;67.41;45136.66;4951102;28;20455;-70
2023/04/14 03:35:33;;;;;;;6.40;5.78;;;;;;;-143.84;67.27;45140.47;4952032;28;21027;-70
2023/04/14 03:38:01;;;;;;;6.37;5.90;;;;;;;-143.84;66.66;45167.13;4952159;28;20191;-71
2023/04/14 03:40:33;;;;;;;5.37;4.97;;;;;;;-143.84;66.27;45153.81;4952320;28;20469;-71
2023/04/14 03:43:02;;;;;;;7.73;4.30;;;;;;;-143.84;65.27;45132.84;4952057;28;20439;-71
2023/04/14 03:45:31;;;;;;;5.40;4.80;;;;;;;-143.84;68.27;45176.66;4952073;28;20485;-72
2023/04/14 03:48:03;;;;;;;5.97;5.03;;;;;;;-143.84;71.63;45129.03;4950953;28;20479;-72
2023/04/14 03:50:35;;;;;;;5.17;4.67;;;;;;;-143.84;72.67;45121.44;4950983;28;20506;-72
2023/04/14 03:53:04;;;;;;;6.68;4.40;;;;;;;-143.84;73.81;45148.09;4951658;28;20453;-71
2023/04/14 03:55:36;;;;;;;12.30;4.90;;;;;;;-143.84;74.25;45134.75;4951750;28;20201;-71
2023/04/14 03:58:05;;;;;;;9.30;5.00;;;;;;;-143.84;74.87;45144.28;4951774;28;20466;-71
2023/04/14 04:00:33;;;;;;;8.83;5.13;;;;;;;-143.84;75.15;45148.09;4951704;28;20865;-71
2023/04/14 04:03:01;;;;;;;6.63;5.93;;;;;;;-143.84;75.30;45130.94;4951343;28;20835;-71
2023/04/14 04:05:29;;;;;;;11.00;5.07;;;;;;;-143.84;74.75;45136.66;4951102;28;20446;-71
2023/04/14 04:08:02;;;;;;;28.10;15.53;;;;;;;-143.84;74.65;45159.50;4950558;28;20545;-71
2023/04/14 04:10:33;;;;;;;14.27;7.87;;;;;;;-143.84;73.69;45142.38;4951372;29;20493;-72
2023/04/14 04:13:01;;;;;;;6.20;4.35;;;;;;;-143.84;73.17;45163.31;4951606;28;20442;-71
2023/04/14 04:15:30;;;;;;;9.30;4.53;;;;;;;-143.84;72.57;45144.28;4951397;28;20230;-71
2023/04/14 04:17:59;;;;;;;7.23;4.80;;;;;;;-143.84;71.92;45150.00;4951394;28;20446;-71
2023/04/14 04:20:29;;;;;;;5.40;4.40;;;;;;;-143.84;71.56;45159.50;4951470;28;20447;-71
2023/04/14 04:23:01;;;;;;;10.73;4.10;;;;;;;-143.84;71.30;45157.59;4950812;28;20262;-71
2023/04/14 04:25:28;;;;;;;7.20;4.27;;;;;;;-143.84;69.79;45136.66;4950511;28;20462;-71
2023/04/14 04:27:57;;;;;;;9.23;4.45;;;;;;;-143.84;68.50;45157.59;4950516;28;20474;-71
2023/04/14 04:30:28;;;;;;;5.33;4.03;;;;;;;-143.84;67.02;45148.09;4950781;28;20791;-71
2023/04/14 04:32:55;;;;;;;8.00;3.77;;;;;;;-143.84;65.52;45169.03;4951079;28;20447;-71
2023/04/14 04:35:24;;;;;;;14.77;3.60;;;;;;;-143.84;64.95;45159.50;4951431;28;20467;-71
2023/04/14 04:37:53;;;;;;;7.53;3.10;;;;;;;-143.84;63.25;45136.66;4951302;28;20446;-71
2023/04/14 04:40:20;;;;;;;13.80;4.50;;;;;;;-143.84;61.74;45167.13;4951216;28;21076;-71
2023/04/14 04:42:47;;;;;;;6.38;3.80;;;;;;;-143.84;60.47;45151.91;4950987;28;20493;-71
2023/04/14 04:45:31;;;;;;;4.80;3.40;;;;;;;-143.84;58.36;45157.59;4949946;28;20203;-71
2023/04/14 04:47:58;;;;;;;3.50;3.03;;;;;;;-143.84;55.40;45136.66;4949834;28;20489;-71
2023/04/14 04:50:25;;;;;;;3.97;3.67;;;;;;;-143.84;56.35;45134.75;4949991;28;20453;-71
2023/04/14 04:52:52;;;;;;;6.05;3.85;;;;;;;-143.84;55.44;45132.84;4950719;28;20450;-71
2023/04/14 04:55:19;;;;;;;3.90;3.60;;;;;;;-143.84;54.21;45151.91;4950300;28;20207;-71
2023/04/14 04:57:47;;;;;;;6.50;4.40;;;;;;;-143.84;55.94;45132.84;4950440;28;20474;-71
2023/04/14 05:00:17;;;;;;;12.93;4.23;;;;;;;-143.84;57.22;45138.56;4950406;28;20536;-71
2023/04/14 05:02:44;;;;;;;8.75;4.00;;;;;;;-143.84;57.30;45113.81;4950686;28;20539;-71
2023/04/14 05:05:12;;;;;;;5.97;4.20;;;;;;;-143.84;57.13;45129.03;4950974;28;20210;-71
2023/04/14 05:07:39;;;;;;;7.35;4.32;;;;;;;-143.84;55.83;45151.91;4950754;28;20545;-71
2023/04/14 05:10:08;;;;;;;6.70;4.20;;;;;;;-143.84;55.29;45121.44;4951265;28;20269;-71
2023/04/14 05:12:35;;;;;;;6.67;3.40;;;;;;;-143.84;54.73;45136.66;4950598;28;20712;-71
2023/04/14 05:15:02;;;;;;;4.73;4.13;;;;;;;-143.84;54.58;45159.50;4950488;28;20510;-71
2023/04/14 05:17:31;;;;;;;8.65;4.40;;;;;;;-143.84;53.74;45130.94;4950663;28;20532;-71
2023/04/14 05:19:58;;;;;;;4.93;3.70;;;;;;;-143.84;50.51;45123.34;4950801;28;20209;-71
2023/04/14 05:22:25;;;;;;;10.40;3.93;;;;;;;-143.84;50.02;45119.53;4982974;28;20451;-71
2023/04/14 05:24:52;;;;;;;6.67;3.80;;;;;;;-143.84;49.35;45127.13;4989132;28;20998;-71
2023/04/14 05:27:20;;;;;;;6.77;4.10;;;;;;;-143.84;49.33;45119.53;4988839;28;20958;-71
2023/04/14 05:29:47;;;;;;;8.37;4.70;;;;;;;-143.84;49.93;45106.19;4989050;28;21071;-71
2023/04/14 05:32:16;;;;;;;4.17;3.77;;;;;;;-143.84;47.32;45094.78;4975168;28;20454;-71
2023/04/14 05:34:50;;;;;;;8.73;4.17;;;;;;;-143.84;47.42;45155.69;4969675;28;20435;-71
2023/04/14 05:37:17;;;;;;;4.00;3.60;;;;;;;-143.84;45.84;45102.38;4968779;28;20458;-71
2023/04/14 05:39:44;;;;;;;4.07;3.77;;;;;;;-143.84;44.92;45079.53;4969071;28;20821;-71
2023/04/14 05:42:13;;;;;;;3.87;3.30;;;;;;;-143.84;44.98;45108.09;4969546;28;20450;-71
2023/04/14 05:44:45;;;;;;;14.37;5.53;;;;;;;-143.84;47.33;45102.38;4969951;28;20434;-71
2023/04/14 05:47:12;;;;;;;11.60;5.13;;;;;;;-143.84;47.20;45110.00;4969337;28;20871;-71
2023/04/14 05:49:39;;;;;;;7.53;4.43;;;;;;;-143.84;47.17;45090.97;4969496;28;20574;-71
2023/04/14 05:52:09;;;;;;;8.50;4.25;;;;;;;-143.84;46.87;45117.63;4969749;28;20447;-71
2023/04/14 05:54:39;;;;;;;8.25;4.03;;;;;;;-143.84;47.52;45100.47;4969720;28;20194;-71
2023/04/14 05:57:06;;;;;;;8.80;4.20;;;;;;;-143.84;47.29;45106.19;4973323;28;20281;-80
2023/04/14 05:59:33;;;;;;;6.80;3.57;;;;;;;-143.84;47.33;45102.38;4973417;28;20453;-70
2023/04/14 06:02:04;;;;;;;9.73;4.80;;;;;;;-143.84;47.86;45110.00;4973036;28;20444;-70
2023/04/14 06:04:31;;;;;;;5.15;3.65;;;;;;;-143.84;47.77;45117.63;4973085;28;20447;-71
2023/04/14 06:07:01;;;;;;;5.85;4.63;;;;;;;-143.84;48.23;45081.44;4972919;28;20281;-70
2023/04/14 06:09:31;;;;;;;8.97;5.47;;;;;;;-143.84;46.75;45111.91;4971616;28;20264;-70
2023/04/14 06:12:00;;;;;;;6.63;5.30;;;;;;;-143.84;46.96;45098.56;4972433;28;20437;-70
2023/04/14 06:14:27;;;;;;;5.22;4.72;;;;;;;-143.84;46.95;45111.91;4972872;28;20567;-70
2023/04/14 06:16:55;;;;;;;8.87;5.00;;;;;;;-143.84;45.87;45102.38;4973281;28;20195;-71
2023/04/14 06:19:22;;;;;;;10.60;5.87;;;;;;;-143.84;46.56;45117.63;4972932;28;21265;-70
2023/04/14 06:21:50;;;;;;;12.40;6.83;;;;;;;-143.84;47.69;45096.66;4972840;28;20448;-71
2023/04/14 06:24:17;;;;;;;14.23;5.10;;;;;;;-143.84;47.17;45098.56;4972648;28;20460;-71
2023/04/14 06:26:48;;;;;;;9.10;5.20;;;;;;;-143.84;47.09;45094.78;4972425;28;20967;-70
2023/04/14 06:29:18;;;;;;;7.82;4.93;;;;;;;-143.84;45.89;45121.44;4971543;28;20517;-70
2023/04/14 06:31:50;;;;;;;9.77;5.40;;;;;;;-143.84;45.98;45079.53;4972516;28;20311;-69
2023/04/14 06:34:23;;;;;;;17.73;5.77;;;;;;;-143.84;46.62;45121.44;4971739;28;20842;-71
2023/04/14 06:36:51;;;;;;;10.77;5.17;;;;;;;-143.84;47.25;45102.38;4971703;28;20452;-71
2023/04/14 06:39:20;;;;;;;7.77;4.70;;;;;;;-143.84;47.08;45100.47;4971883;28;20512;-71
2023/04/14 06:41:49;;;;;;;4.53;3.90;;;;;;;-143.84;46.17;45113.81;4970783;28;20463;-71
2023/04/14 06:44:17;;;;;;;3.90;3.60;;;;;;;-143.84;45.38;45098.56;4971170;28;21045;-71
2023/04/14 06:46:44;;;;;;;8.73;3.87;;;;;;;-143.84;45.46;45110.00;4972199;28;20441;-71
2023/04/14 06:49:11;;;;;;;4.10;3.65;;;;;;;-143.84;44.85;45098.56;4972050;28;21072;-71
2023/04/14 06:51:39;;;;;;;7.53;4.37;;;;;;;-143.84;45.44;45092.88;4972390;28;20213;-71
2023/04/14 06:54:06;;;;;;;5.10;4.40;;;;;;;-143.84;46.30;45096.66;4972053;28;20445;-71
2023/04/14 06:56:37;;;;;;;8.03;4.90;;;;;;;-143.84;46.58;45085.25;4971757;28;20815;-71
2023/04/14 06:59:05;;;;;;;7.67;3.80;;;;;;;-143.84;47.12;45115.72;4971540;28;20504;-71
2023/04/14 07:01:32;;;;;;;9.95;4.45;;;;;;;-143.84;47.17;45115.72;4971959;28;21276;-71
2023/04/14 07:09:10;;;;;;;4.83;3.70;;;;;;;-143.84;46.04;45083.34;5992430;23;21361;-64
2023/04/14 07:11:39;;;;;;;7.93;4.53;;;;;;;-143.84;45.67;45106.19;4971294;28;20448;-69
2023/04/14 07:14:07;;;;;;;7.70;4.17;;;;;;;-143.84;44.61;45085.25;4972987;28;20213;-70
2023/04/14 07:16:35;;;;;;;4.60;3.80;;;;;;;-143.84;44.55;45104.28;5175808;23;20568;-60
2023/04/14 07:19:02;;;;;;;5.20;3.43;;;;;;;-143.84;44.30;45087.16;4971866;28;20460;-59
2023/04/14 07:21:29;;;;;;;5.90;4.13;;;;;;;-143.84;45.53;45094.78;4971883;28;20527;-61
2023/04/14 07:23:56;;;;;;;7.40;4.50;;;;;;;-143.84;45.60;45125.22;4971266;28;20455;-65
2023/04/14 07:26:24;;;;;;;22.60;4.93;;;;;;;-143.84;46.29;45104.28;4971146;28;20437;-64
2023/04/14 07:28:51;;;;;;;7.10;4.10;;;;;;;-143.84;46.71;45079.53;4970982;28;20477;-64
2023/04/14 07:31:19;;;;;;;10.03;4.90;;;;;;;-143.84;46.87;45106.19;4972960;28;20457;-64
2023/04/14 07:33:46;;;;;;;4.23;3.83;;;;;;;-143.84;46.22;45102.38;4970885;28;20553;-64
2023/04/14 07:36:14;;;;;;;14.63;4.70;;;;;;;-143.84;44.67;45102.38;4974737;28;20442;-65
2023/04/14 07:38:42;;;;;;;7.03;4.70;;;;;;;-143.84;44.62;45094.78;4973537;28;20476;-64
2023/04/14 07:41:09;;;;;;;5.97;4.73;;;;;;;-143.84;46.24;45081.44;4970771;28;21061;-61
2023/04/14 07:43:38;;;;;;;8.30;4.57;;;;;;;-143.84;44.94;45073.81;4971375;28;20461;-61
2023/04/14 07:46:06;;;;;;;9.40;4.07;;;;;;;-143.84;44.04;45090.97;4971019;28;20537;-61
2023/04/14 07:48:36;;;;;;;13.23;4.63;;;;;;;-143.84;45.64;45102.38;4971011;28;20500;-61
2023/04/14 07:51:04;;;;;;;7.60;4.40;;;;;;;-143.84;44.87;45085.25;4970655;28;21025;-61
2023/04/14 07:53:32;;;;;;;5.63;4.57;;;;;;;-143.84;44.94;45098.56;4970674;28;20508;-61
2023/04/14 07:55:59;;;;;;;4.57;4.13;;;;;;;-143.84;43.90;45068.13;4970811;28;20438;-62
2023/04/14 07:58:28;;;;;;;4.57;4.15;;;;;;;-143.84;43.19;45108.09;4971145;28;20202;-61
2023/04/14 08:00:55;;;;;;;4.37;3.97;;;;;;;-143.84;43.13;45071.91;4969499;28;20207;-61
2023/04/14 08:03:22;;;;;;;4.80;4.07;;;;;;;-143.84;42.64;45090.97;4969406;28;20453;-62
2023/04/14 08:05:51;;;;;;;11.30;5.13;;;;;;;-143.84;42.63;45083.34;4969489;28;20511;-61
2023/04/14 08:08:18;;;;;;;10.40;4.03;;;;;;;-143.84;41.82;45090.97;4969460;28;20501;-61
2023/04/14 08:10:45;;;;;;;4.50;3.90;;;;;;;-143.84;41.16;45071.91;4969516;28;20494;-60
2023/04/14 08:13:12;;;;;;;8.60;4.20;;;;;;;-143.84;41.43;45090.97;4969517;28;20963;-61
2023/04/14 08:15:39;;;;;;;6.80;4.47;;;;;;;-143.84;41.82;45071.91;4970223;28;20449;-61
2023/04/14 08:18:07;;;;;;;4.80;4.00;;;;;;;-143.84;40.86;45094.78;4971107;28;20879;-61
2023/04/14 08:20:34;;;;;;;4.40;4.00;;;;;;;-143.84;40.38;45081.44;4972288;28;20936;-61
2023/04/14 08:23:02;;;;;;;5.30;3.60;;;;;;;-143.84;40.82;45073.81;4972245;28;20509;-61
2023/04/14 08:25:29;;;;;;;5.60;4.30;;;;;;;-143.84;41.90;45083.34;4972154;28;20516;-61
2023/04/14 08:27:56;;;;;;;4.10;3.80;;;;;;;-143.84;41.71;45081.44;4972282;28;20504;-61
2023/04/14 08:30:24;;;;;;;6.53;4.00;;;;;;;-143.84;40.99;45064.31;4972208;28;20842;-61
2023/04/14 08:32:51;;;;;;;6.80;3.73;;;;;;;-143.84;41.08;45079.53;4972249;28;20532;-62
2023/04/14 08:35:18;;;;;;;5.80;4.80;;;;;;;-143.84;41.42;45054.78;4972261;28;20949;-61
2023/04/14 08:37:45;;;;;;;9.20;4.23;;;;;;;-143.84;40.73;45077.63;4972028;28;20445;-61
2023/04/14 08:40:16;;;;;;;7.63;4.37;;;;;;;-143.84;40.84;45066.22;4972215;28;20472;-61
2023/04/14 08:42:44;;;;;;;8.45;4.20;;;;;;;-143.84;41.68;45079.53;4971927;28;20448;-62
2023/04/14 08:45:12;;;;;;;7.10;4.30;;;;;;;-143.84;42.28;45077.63;4971850;28;20224;-62
2023/04/14 08:47:40;;;;;;;4.73;4.33;;;;;;;-143.84;41.96;45073.81;4971955;28;20448;-62
2023/04/14 08:50:13;;;;;;;5.60;5.03;;;;;;;-143.84;41.40;45070.00;4971740;28;20476;-62
2023/04/14 08:52:41;;;;;;;7.03;4.13;;;;;;;-143.84;41.94;45056.69;4971806;28;20446;-62
2023/04/14 08:55:10;;;;;;;5.83;4.53;;;;;;;-143.84;42.19;45056.69;4971906;28;20439;-62
2023/04/14 08:57:41;;;;;;;9.80;4.80;;;;;;;-143.84;41.91;45083.34;4971767;28;20513;-62
2023/04/14 09:00:10;;;;;;;8.03;4.93;;;;;;;-143.84;41.32;45081.44;4971799;28;20845;-62
2023/04/14 09:02:38;;;;;;;4.73;3.97;;;;;;;-143.84;41.85;45054.78;4971942;28;20452;-62
2023/04/14 09:05:07;;;;;;;8.13;4.83;;;;;;;-143.84;42.60;45070.00;4971995;28;20441;-62
2023/04/14 09:07:34;;;;;;;7.10;4.10;;;;;;;-143.84;41.87;45089.06;4971675;28;20452;-62
2023/04/14 09:10:02;;;;;;;10.43;5.33;;;;;;;-143.84;42.42;45071.91;4971657;28;20559;-61
2023/04/14 09:12:30;;;;;;;9.95;4.82;;;;;;;-143.84;43.19;45041.44;4971633;28;20928;-62
2023/04/14 09:15:00;;;;;;;5.47;4.25;;;;;;;-143.84;42.39;45077.63;4971617;28;20203;-62
2023/04/14 09:17:28;;;;;;;5.70;5.10;;;;;;;-143.84;42.76;45075.72;4970812;28;20237;-62
2023/04/14 09:19:55;;;;;;;6.27;4.90;;;;;;;-143.84;42.56;45075.72;4970315;28;20512;-62
2023/04/14 09:22:22;;;;;;;5.03;4.57;;;;;;;-143.84;42.75;45083.34;4970216;28;20448;-62
2023/04/14 09:24:50;;;;;;;12.63;4.90;;;;;;;-143.84;41.88;45064.31;4970103;28;20494;-62
2023/04/14 09:27:18;;;;;;;6.00;4.40;;;;;;;-143.84;42.31;45054.78;4969709;28;20465;-61
2023/04/14 09:29:46;;;;;;;9.90;5.28;;;;;;;-143.84;42.26;45056.69;4969642;28;20483;-61
2023/04/14 09:32:15;;;;;;;12.33;4.60;;;;;;;-143.84;41.93;45054.78;4972913;28;20205;-61
2023/04/14 09:34:51;;;;;;;7.35;4.75;;;;;;;-143.84;41.59;45064.31;4973874;28;21039;-61
2023/04/14 09:37:19;;;;;;;5.00;4.20;;;;;;;-143.84;42.26;45068.13;4954244;29;20221;-61
2023/04/14 09:39:50;;;;;;;6.43;4.23;;;;;;;-143.84;42.89;45079.53;4973177;28;20535;-60
2023/04/14 09:42:18;;;;;;;6.87;5.13;;;;;;;-143.84;42.88;45066.22;4973768;28;20439;-60
2023/04/14 09:44:55;;;;;;;19.13;5.57;;;;;;;-143.84;42.32;45077.63;4973370;28;20447;-60
2023/04/14 09:47:24;;;;;;;9.03;5.10;;;;;;;-143.84;43.25;45075.72;4973353;28;20472;-60
2023/04/14 09:49:57;;;;;;;10.10;5.63;;;;;;;-143.84;43.68;45071.91;4973134;28;20840;-60
2023/04/14 09:52:37;;;;;;;7.60;4.70;;;;;;;-143.84;43.24;45079.53;4973299;28;20446;-60
2023/04/14 09:55:07;;;;;;;6.72;5.10;;;;;;;-143.84;43.92;45075.72;4973312;28;20479;-60
2023/04/14 09:57:36;;;;;;;10.20;6.30;;;;;;;-143.84;44.14;45087.16;4973195;28;20209;-60
2023/04/14 10:00:09;;;;;;;12.45;5.97;;;;;;;-143.84;44.35;45083.34;4973149;28;20456;-60
2023/04/14 10:02:49;;;;;;;7.80;5.30;;;;;;;-143.84;45.05;45033.84;4973189;28;20202;-60
2023/04/14 10:05:19;;;;;;;8.43;5.73;;;;;;;-143.84;45.55;45064.31;4972806;28;20449;-60
2023/04/14 10:07:46;;;;;;;11.37;5.87;;;;;;;-143.84;45.67;45094.78;4972715;28;20453;-60
2023/04/14 10:10:14;;;;;;;9.67;5.87;;;;;;;-143.84;46.24;45083.34;4972155;28;20487;-61
2023/04/14 10:12:46;;;;;;;13.80;6.82;;;;;;;-143.84;47.43;45052.88;4970602;28;20464;-60
2023/04/14 10:15:14;;;;;;;9.13;6.57;;;;;;;-143.84;47.55;45085.25;4971843;28;20214;-60
2023/04/14 10:17:42;;;;;;;8.37;6.17;;;;;;;-143.84;47.26;45089.06;4972038;28;20572;-61
2023/04/14 10:20:11;;;;;;;12.60;7.13;;;;;;;-143.84;49.20;45070.00;4971870;28;20444;-61
2023/04/14 10:22:39;;;;;;;18.83;8.33;;;;;;;-143.84;48.55;45087.16;4972617;28;20869;-60
2023/04/14 10:25:08;;;;;;;11.68;6.95;;;;;;;-143.84;50.28;45090.97;4972690;28;20939;-60
2023/04/14 10:27:36;;;;;;;10.53;7.03;;;;;;;-143.84;50.67;45073.81;4972489;28;20205;-60
2023/04/14 10:30:05;;;;;;;14.37;7.67;;;;;;;-143.84;51.88;45052.88;4972787;28;20511;-60
2023/04/14 10:32:35;;;;;;;10.83;7.40;;;;;;;-143.84;51.81;45081.44;4972502;28;20442;-60
2023/04/14 10:35:05;;;;;;;10.23;7.10;;;;;;;-143.84;54.74;45094.78;4972462;28;21207;-60
2023/04/14 10:37:34;;;;;;;8.53;7.07;;;;;;;-143.84;54.58;45106.19;4972388;28;20433;-60
2023/04/14 10:40:04;;;;;;;19.17;8.98;;;;;;;-143.84;54.97;45085.25;4972311;28;20443;-61
2023/04/14 10:42:52;;;;;;;16.33;8.30;;;;;;;-143.84;55.63;45104.28;4972001;28;21055;-61
2023/04/14 10:45:19;;;;;;;10.20;7.47;;;;;;;-143.84;57.01;45090.97;4972479;28;20564;-61
2023/04/14 10:47:46;;;;;;;9.90;7.17;;;;;;;-143.84;54.23;45090.97;4972401;28;21018;-61
2023/04/14 10:50:16;;;;;;;12.37;6.57;;;;;;;-143.84;53.69;45066.22;4972287;28;20485;-60
2023/04/14 10:52:53;;;;;;;16.20;7.20;;;;;;;-143.84;54.88;45125.22;4972432;28;20441;-63
2023/04/14 10:55:23;;;;;;;10.03;7.80;;;;;;;-143.84;56.03;45094.78;4972267;28;20456;-60
2023/04/14 10:57:50;;;;;;;13.30;7.20;;;;;;;-143.84;56.89;45085.25;4972046;28;20434;-60
2023/04/14 11:00:26;;;;;;;12.27;6.97;;;;;;;-143.84;59.23;45068.13;4972140;28;20504;-60
2023/04/14 11:02:58;;;;;;;8.97;7.10;;;;;;;-143.84;57.32;45079.53;4972065;28;20856;-60
2023/04/14 11:05:26;;;;;;;11.73;6.83;;;;;;;-143.84;56.26;45087.16;4971914;28;20451;-61
2023/04/14 11:07:57;;;;;;;14.20;6.10;;;;;;;-143.84;52.50;45077.63;4971882;28;20453;-60
2023/04/14 11:10:30;;;;;;;10.10;7.47;;;;;;;-143.84;53.38;45085.25;4971619;28;20481;-61
2023/04/14 11:13:02;;;;;;;9.10;6.63;;;;;;;-143.84;53.19;45094.78;4972246;28;21216;-60
2023/04/14 11:15:50;;;;;;;15.27;6.73;;;;;;;-143.84;51.25;45064.31;4971814;28;20486;-60
2023/04/14 11:18:19;;;;;;;10.50;6.30;;;;;;;-143.84;50.60;45085.25;4971863;28;20482;-60
2023/04/14 11:20:46;;;;;;;13.47;7.00;;;;;;;-143.84;51.42;45085.25;4971647;28;20846;-60
2023/04/14 11:23:15;;;;;;;8.33;6.00;;;;;;;-143.84;50.76;45071.91;4971354;28;20974;-60
2023/04/14 11:25:44;;;;;;;18.77;6.27;;;;;;;-143.84;52.44;45087.16;4971351;28;20971;-60
2023/04/14 11:28:11;;;;;;;13.63;6.83;;;;;;;-143.84;54.92;45098.56;4971676;28;20527;-60
2023/04/14 11:30:41;;;;;;;12.20;7.20;;;;;;;-143.84;55.40;45081.44;4971495;28;20486;-60